Aérodrome :
LOGIN :

S'inscrire | Disclaimer

   EN    FR    IT 

 










Légende :    VFR   VFR Marginal   IFR   IFR Intensif   IFR Très Intensif
Visi : 
Plafond : 
>= 8 km
>= 3000ft
5 à 8 km
1000 à 3000 ft
1500m à 5 km
500 à 1000 ft
800 à 1500m
200 à 500 ft
< 800m
< 200 ft
Symboles :   Orages  Brouillard  Fortes neiges  Fortes précipitations  Vent > 20 kt
SIGMETs :   Divers  Orages  Givrage  Turbulence  Onde Orograph.  Cendres Volcan.






- Altitude de l'aérodrome : 195 ft


LFMY - Salon de Provence

DERNIER METAR :
  • 071330Z AUTO 29003KT 240V330 CAVOK 14/07 Q1019

METARs EXPIRÉS :
  • 071300Z AUTO 29005KT 250V340 CAVOK 14/07 Q1020
  • 071230Z AUTO 27005KT 240V300 CAVOK 13/07 Q1020
  • 071200Z AUTO 29004KT 270V330 CAVOK 13/07 Q1020
  • 071130Z AUTO 32003KT 270V010 CAVOK 13/06 Q1021
  • 071100Z AUTO 29003KT 240V340 CAVOK 12/06 Q1021

Prévision TAF périmée.



MET'MAP, la Météo Aéronautique d'un coup d'oeil ! - Copyright ORBIFLY Décembre 2007 - Disclaimer

ORBIFLY MET'MAP TEAM :

Programmation & Développement : Alexandra Zaïnal
Sur une idée originale de : Baudouin d'Aumeries
Assistance à la programmation : Marc-Olivier Méhu
Soutien technique & logistique : Manuel Goepfert

Contact : metmap@orbifly.com




SOURCES & CREDITS :

   NOAA